Time;durP1;ratioP1;P1;durP2;ratioP2;P2;SDS_P1;SDS_P2;PMS_P1;PMS_P2;Temp;Humidity;BMP_temperature;BMP_pressure;BME280_temperature;BME280_humidity;BME280_pressure;Samples;Min_cycle;Max_cycle;Signal;HPM_P1;HPM_P2
2022/01/29 00:02:16;;;;;;;44.78;26.95;;;6.80;99.90;;;;;;4778917;29;20034;-70
2022/01/29 00:04:42;;;;;;;47.63;28.63;;;6.80;99.90;;;;;;4786013;29;20122;-70
2022/01/29 00:07:09;;;;;;;49.40;29.10;;;6.90;99.90;;;;;;4770271;29;20046;-70
2022/01/29 00:09:35;;;;;;;51.47;28.75;;;6.90;99.90;;;;;;4769828;30;20137;-70
2022/01/29 00:12:05;;;;;;;50.35;27.90;;;6.80;99.90;;;;;;4785206;29;20089;-71
2022/01/29 00:14:31;;;;;;;51.75;28.30;;;6.90;99.90;;;;;;4755060;30;20454;-70
2022/01/29 00:16:57;;;;;;;49.30;28.63;;;6.80;99.90;;;;;;4785225;29;20420;-70
2022/01/29 00:19:23;;;;;;;43.47;26.55;;;6.90;99.90;;;;;;4784731;29;20047;-70
2022/01/29 00:21:49;;;;;;;41.08;26.20;;;7.10;99.90;;;;;;4785612;29;20062;-70
2022/01/29 00:24:14;;;;;;;43.88;25.35;;;6.80;99.90;;;;;;4784781;29;20055;-70
2022/01/29 00:26:40;;;;;;;43.55;26.73;;;6.80;99.90;;;;;;4769499;30;20043;-71
2022/01/29 00:29:16;;;;;;;41.65;26.52;;;6.80;99.90;;;;;;4785216;29;20456;-70
2022/01/29 00:31:42;;;;;;;47.17;25.13;;;6.90;99.90;;;;;;4784036;29;20083;-69
2022/01/29 00:34:08;;;;;;;42.65;27.00;;;6.80;99.90;;;;;;4786044;29;20528;-70
2022/01/29 00:36:33;;;;;;;48.75;26.35;;;6.80;99.90;;;;;;4784434;29;20052;-70
2022/01/29 00:38:59;;;;;;;44.63;25.83;;;6.80;99.90;;;;;;4785506;29;20043;-70
2022/01/29 00:41:25;;;;;;;51.15;26.90;;;6.90;99.90;;;;;;4785892;30;20108;-70
2022/01/29 00:43:51;;;;;;;47.10;26.08;;;6.80;99.90;;;;;;4785736;29;20051;-70
2022/01/29 00:46:17;;;;;;;44.28;26.88;;;6.80;99.90;;;;;;4754972;30;20082;-70
2022/01/29 00:48:43;;;;;;;40.72;24.85;;;6.90;99.90;;;;;;4786142;30;20082;-70
2022/01/29 00:51:09;;;;;;;45.63;26.48;;;6.90;99.90;;;;;;4769596;30;20043;-71
2022/01/29 00:53:35;;;;;;;40.97;27.00;;;6.80;99.90;;;;;;4768603;30;20051;-70
2022/01/29 00:56:06;;;;;;;46.67;27.45;;;6.80;99.90;;;;;;4784930;29;20048;-70
2022/01/29 00:58:31;;;;;;;44.42;26.58;;;6.80;99.90;;;;;;4778851;30;20043;-70
2022/01/29 01:00:57;;;;;;;43.90;26.23;;;6.80;99.90;;;;;;4785178;30;20503;-71
2022/01/29 01:03:23;;;;;;;43.95;27.52;;;6.80;99.90;;;;;;4769696;30;20044;-70
2022/01/29 01:05:49;;;;;;;49.97;27.42;;;6.80;99.90;;;;;;4786196;29;20047;-70
2022/01/29 01:08:14;;;;;;;46.10;26.98;;;6.80;99.90;;;;;;4786098;29;20489;-69
2022/01/29 01:10:40;;;;;;;48.88;29.20;;;6.90;99.90;;;;;;4785981;29;20047;-72
2022/01/29 01:13:06;;;;;;;45.22;27.05;;;6.80;99.90;;;;;;4785499;29;20039;-70
2022/01/29 01:15:31;;;;;;;46.45;27.17;;;6.80;99.90;;;;;;4784419;29;20408;-72
2022/01/29 01:17:57;;;;;;;38.80;23.98;;;6.80;99.90;;;;;;4786093;29;20047;-70
2022/01/29 01:20:23;;;;;;;48.75;28.98;;;6.70;99.90;;;;;;4769591;30;20055;-71
2022/01/29 01:22:49;;;;;;;49.47;29.73;;;6.70;99.90;;;;;;4784373;29;20051;-71
2022/01/29 01:25:15;;;;;;;47.70;29.25;;;6.70;99.90;;;;;;4754514;30;20035;-72
2022/01/29 01:27:41;;;;;;;47.15;27.23;;;6.70;99.90;;;;;;4783755;29;20054;-70
2022/01/29 01:30:07;;;;;;;51.00;30.63;;;6.80;99.90;;;;;;4783984;29;20116;-70
2022/01/29 01:32:33;;;;;;;46.28;28.67;;;6.70;99.90;;;;;;4786268;29;20047;-70
2022/01/29 01:35:10;;;;;;;55.88;30.70;;;6.80;99.90;;;;;;4784821;29;20055;-71
2022/01/29 01:37:49;;;;;;;54.45;31.05;;;6.70;99.90;;;;;;4786062;29;20130;-70
2022/01/29 01:40:15;;;;;;;56.42;32.95;;;6.80;99.90;;;;;;4786002;29;20412;-70
2022/01/29 01:42:41;;;;;;;53.28;29.75;;;6.80;99.90;;;;;;4785160;29;20127;-70
2022/01/29 01:45:07;;;;;;;45.92;30.30;;;6.80;99.90;;;;;;4783911;29;20460;-70
2022/01/29 01:47:33;;;;;;;50.47;29.58;;;6.80;99.90;;;;;;4785576;29;20043;-71
2022/01/29 01:49:59;;;;;;;48.80;30.73;;;6.80;99.90;;;;;;4784336;29;20039;-70
2022/01/29 01:52:24;;;;;;;52.38;31.15;;;6.80;99.90;;;;;;4784460;29;20122;-70
2022/01/29 01:54:50;;;;;;;52.65;28.58;;;6.80;99.90;;;;;;4783583;29;20408;-71
2022/01/29 01:57:17;;;;;;;43.42;28.17;;;6.90;99.90;;;;;;4785177;29;20051;-71
2022/01/29 01:59:43;;;;;;;50.03;28.92;;;6.80;99.90;;;;;;4785964;29;20051;-70
2022/01/29 02:02:09;;;;;;;54.03;29.38;;;6.80;99.90;;;;;;4783040;29;20050;-71
2022/01/29 02:04:36;;;;;;;48.13;28.55;;;6.90;99.90;;;;;;4787490;29;20409;-70
2022/01/29 02:07:02;;;;;;;55.13;29.35;;;6.80;99.90;;;;;;4787212;29;20158;-70
2022/01/29 02:09:30;;;;;;;49.85;28.90;;;6.80;99.90;;;;;;4788591;29;20162;-70
2022/01/29 02:11:58;;;;;;;44.42;26.58;;;6.80;99.90;;;;;;4786897;29;20059;-70
2022/01/29 02:14:27;;;;;;;46.28;27.27;;;7.00;99.90;;;;;;4787395;29;20043;-71
2022/01/29 02:16:54;;;;;;;44.35;26.63;;;6.90;99.90;;;;;;4786108;29;20047;-70
2022/01/29 02:19:20;;;;;;;50.30;28.00;;;6.90;99.90;;;;;;4789725;29;20047;-70
2022/01/29 02:21:46;;;;;;;51.05;29.48;;;6.90;99.90;;;;;;4786532;29;20127;-70
2022/01/29 02:24:11;;;;;;;46.17;26.67;;;6.90;99.90;;;;;;4785940;29;20056;-70
2022/01/29 02:26:37;;;;;;;53.88;29.15;;;7.00;99.90;;;;;;4786625;29;20044;-70
2022/01/29 02:29:04;;;;;;;51.50;27.02;;;6.90;99.90;;;;;;4784078;29;20064;-70
2022/01/29 02:31:29;;;;;;;50.75;28.15;;;7.00;99.90;;;;;;4788175;29;20031;-70
2022/01/29 02:33:55;;;;;;;49.55;26.60;;;7.00;99.90;;;;;;4789019;29;20055;-70
2022/01/29 02:36:21;;;;;;;47.60;26.80;;;7.10;99.90;;;;;;4787498;29;20393;-71
2022/01/29 02:38:47;;;;;;;45.17;27.27;;;7.00;99.90;;;;;;4788400;29;20439;-70
2022/01/29 02:41:12;;;;;;;47.13;26.80;;;7.00;99.90;;;;;;4786485;29;20066;-70
2022/01/29 02:48:53;;;;;;;45.83;26.33;;;7.10;99.90;;;;;;4769110;29;20054;-70
2022/01/29 02:51:20;;;;;;;50.65;25.27;;;7.20;99.90;;;;;;4785954;29;20047;-71
2022/01/29 02:53:48;;;;;;;43.85;24.45;;;7.10;99.90;;;;;;4784338;29;20058;-70
2022/01/29 02:56:13;;;;;;;53.15;25.42;;;7.10;99.90;;;;;;4785525;29;20047;-70
2022/01/29 02:58:40;;;;;;;44.05;23.70;;;7.20;99.90;;;;;;4785401;29;20051;-71
2022/01/29 03:01:07;;;;;;;37.78;22.70;;;7.20;99.90;;;;;;4785286;29;20147;-71
2022/01/29 03:03:33;;;;;;;46.97;25.50;;;7.20;99.90;;;;;;4785895;29;20047;-71
2022/01/29 03:06:00;;;;;;;45.42;23.15;;;7.30;99.90;;;;;;4786865;29;20048;-71
2022/01/29 03:08:25;;;;;;;44.25;23.48;;;7.30;99.90;;;;;;4786682;29;20043;-71
2022/01/29 03:10:51;;;;;;;46.15;23.40;;;7.20;99.90;;;;;;4785231;29;20493;-71
2022/01/29 03:13:17;;;;;;;41.45;21.88;;;7.30;99.90;;;;;;4785468;29;20054;-71
2022/01/29 03:15:43;;;;;;;42.35;21.13;;;7.30;99.90;;;;;;4783387;29;20151;-70
2022/01/29 03:18:09;;;;;;;44.38;21.67;;;7.30;99.90;;;;;;4785012;29;20058;-71
2022/01/29 03:20:34;;;;;;;34.88;20.38;;;7.30;99.90;;;;;;4786836;29;20039;-71
2022/01/29 03:23:00;;;;;;;41.20;19.85;;;7.40;99.90;;;;;;4785595;29;20047;-70
2022/01/29 03:25:26;;;;;;;38.60;20.33;;;7.40;99.90;;;;;;4783493;29;20046;-71
2022/01/29 03:27:52;;;;;;;41.85;20.38;;;7.40;99.90;;;;;;4785149;29;20043;-71
2022/01/29 03:30:18;;;;;;;41.60;19.27;;;7.40;99.90;;;;;;4786257;29;20078;-71
2022/01/29 03:32:44;;;;;;;36.40;19.15;;;7.40;99.90;;;;;;4783218;29;20147;-71
2022/01/29 03:35:11;;;;;;;32.00;18.65;;;7.50;99.90;;;;;;4785069;29;20078;-71
2022/01/29 03:37:37;;;;;;;39.65;19.40;;;7.50;99.90;;;;;;4784368;29;20512;-71
2022/01/29 03:40:06;;;;;;;34.22;18.90;;;7.50;99.90;;;;;;4786538;29;20058;-71
2022/01/29 03:42:36;;;;;;;36.40;18.90;;;7.60;99.90;;;;;;4789053;29;20087;-71
2022/01/29 03:45:02;;;;;;;35.67;19.42;;;7.60;99.90;;;;;;4786466;29;20055;-71
2022/01/29 03:47:28;;;;;;;34.55;18.77;;;7.60;99.90;;;;;;4786114;29;20049;-71
2022/01/29 03:49:54;;;;;;;33.67;19.60;;;7.60;99.90;;;;;;4786589;29;20051;-70
2022/01/29 03:52:19;;;;;;;36.78;18.63;;;7.70;99.90;;;;;;4786877;29;20069;-71
2022/01/29 03:54:45;;;;;;;38.50;19.48;;;7.70;99.90;;;;;;4785554;29;20114;-71
2022/01/29 03:57:11;;;;;;;37.22;18.27;;;7.70;99.90;;;;;;4766908;29;20090;-71
2022/01/29 03:59:36;;;;;;;42.92;19.27;;;7.70;99.90;;;;;;4784597;29;20148;-71
2022/01/29 04:02:02;;;;;;;36.22;18.77;;;7.70;99.90;;;;;;4782826;29;20062;-71
2022/01/29 04:04:28;;;;;;;28.27;17.88;;;7.70;99.90;;;;;;4782369;30;20047;-71
2022/01/29 04:06:54;;;;;;;35.15;17.83;;;7.70;99.90;;;;;;4787019;29;20039;-71
2022/01/29 04:09:21;;;;;;;39.70;18.85;;;7.70;99.90;;;;;;4771249;29;20055;-71
2022/01/29 04:11:47;;;;;;;34.88;16.92;;;7.80;99.90;;;;;;4784996;29;20044;-71
2022/01/29 04:14:17;;;;;;;33.72;17.17;;;7.80;99.90;;;;;;4786770;29;20442;-71
2022/01/29 04:16:46;;;;;;;32.28;16.85;;;7.80;99.90;;;;;;4782243;29;20054;-71
2022/01/29 04:19:12;;;;;;;35.97;17.13;;;7.80;99.90;;;;;;4786216;29;20497;-71
2022/01/29 04:21:41;;;;;;;29.88;17.15;;;7.80;99.90;;;;;;4785082;29;20055;-70
2022/01/29 04:24:07;;;;;;;29.27;16.20;;;7.80;99.90;;;;;;4786309;29;20055;-70
2022/01/29 04:26:34;;;;;;;37.72;18.58;;;7.80;99.90;;;;;;4786732;29;20093;-70
2022/01/29 04:29:07;;;;;;;34.08;17.80;;;7.80;99.90;;;;;;4786328;29;20059;-71
2022/01/29 04:31:47;;;;;;;35.95;18.00;;;7.90;99.90;;;;;;4785272;29;20059;-70
2022/01/29 04:34:13;;;;;;;33.40;17.23;;;7.80;99.90;;;;;;4786573;29;20504;-70
2022/01/29 04:36:39;;;;;;;27.42;16.30;;;7.90;99.90;;;;;;4784661;29;20062;-70
2022/01/29 04:39:04;;;;;;;29.67;16.45;;;7.90;99.90;;;;;;4782743;29;20463;-71
2022/01/29 04:41:30;;;;;;;34.65;16.88;;;7.90;99.90;;;;;;4784874;29;20050;-70
2022/01/29 04:43:56;;;;;;;36.42;17.60;;;7.90;99.90;;;;;;4784813;29;20059;-71
2022/01/29 04:46:22;;;;;;;30.70;17.27;;;7.90;99.90;;;;;;4784703;29;20042;-71
2022/01/29 04:48:47;;;;;;;32.00;16.25;;;7.90;99.90;;;;;;4785072;29;20401;-71
2022/01/29 04:51:13;;;;;;;33.60;17.25;;;7.90;99.90;;;;;;4784549;29;20511;-70
2022/01/29 04:53:40;;;;;;;30.40;15.20;;;7.90;99.90;;;;;;4784492;29;20047;-70
2022/01/29 04:56:07;;;;;;;21.52;14.63;;;7.90;99.90;;;;;;4784260;29;20063;-71
2022/01/29 04:58:33;;;;;;;29.73;15.45;;;7.90;99.90;;;;;;4785912;29;20043;-71
2022/01/29 05:00:59;;;;;;;36.35;17.27;;;8.00;99.90;;;;;;4784700;29;20047;-71
2022/01/29 05:03:24;;;;;;;29.33;16.10;;;8.00;99.90;;;;;;4784443;29;20065;-70
2022/01/29 05:05:50;;;;;;;30.50;16.02;;;8.00;99.90;;;;;;4784772;29;20539;-71
2022/01/29 05:08:17;;;;;;;26.27;14.75;;;7.90;99.90;;;;;;4785727;29;20055;-71
2022/01/29 05:10:42;;;;;;;25.63;14.35;;;8.00;99.90;;;;;;4785131;29;20127;-71
2022/01/29 05:13:12;;;;;;;31.95;15.68;;;8.00;99.90;;;;;;4786070;29;20126;-71
2022/01/29 05:29:06;;;;;;;25.35;13.80;;;8.10;99.90;;;;;;4783044;29;20105;-70
2022/01/29 05:31:32;;;;;;;28.33;14.80;;;8.10;99.90;;;;;;4781377;29;20082;-70
2022/01/29 05:33:59;;;;;;;28.00;14.65;;;8.20;99.90;;;;;;4784851;29;20047;-71
2022/01/29 05:36:25;;;;;;;28.73;14.93;;;8.20;99.90;;;;;;4785829;29;20054;-70
2022/01/29 05:38:50;;;;;;;28.58;14.77;;;8.20;99.90;;;;;;4787430;29;20549;-70
2022/01/29 05:41:16;;;;;;;24.77;15.50;;;8.20;99.90;;;;;;4788189;29;20047;-71
2022/01/29 05:43:45;;;;;;;29.13;14.75;;;8.30;99.90;;;;;;4789159;29;20088;-71
2022/01/29 05:46:12;;;;;;;31.75;14.70;;;8.30;99.90;;;;;;4787574;29;20035;-70
2022/01/29 05:48:38;;;;;;;28.73;15.23;;;8.30;99.90;;;;;;4789128;29;20074;-70
2022/01/29 05:51:04;;;;;;;27.42;14.70;;;8.30;99.90;;;;;;4789607;29;20142;-71
2022/01/29 05:53:30;;;;;;;26.70;15.02;;;8.20;99.90;;;;;;4789207;29;20473;-70
2022/01/29 05:55:56;;;;;;;23.20;13.25;;;8.30;99.90;;;;;;4788579;29;20055;-71
2022/01/29 05:58:21;;;;;;;21.90;14.20;;;8.30;99.90;;;;;;4787538;29;20078;-71
2022/01/29 06:00:47;;;;;;;24.27;12.90;;;8.40;99.90;;;;;;4789175;29;20070;-71
2022/01/29 06:03:13;;;;;;;26.25;13.70;;;8.30;99.90;;;;;;4789155;29;20055;-70
2022/01/29 06:05:38;;;;;;;24.08;13.40;;;8.30;99.90;;;;;;4787316;29;20477;-71
2022/01/29 06:08:05;;;;;;;25.88;11.70;;;8.30;99.90;;;;;;4789584;29;20125;-70
2022/01/29 06:10:31;;;;;;;24.38;12.70;;;8.30;99.90;;;;;;4795089;29;20043;-71
2022/01/29 06:13:09;;;;;;;18.75;12.20;;;8.30;99.90;;;;;;4789440;29;20040;-69
2022/01/29 06:15:42;;;;;;;23.30;12.02;;;8.30;99.90;;;;;;4787831;29;20047;-71
2022/01/29 06:18:15;;;;;;;24.85;12.57;;;8.30;99.90;;;;;;4787943;30;20082;-70
2022/01/29 06:20:42;;;;;;;22.83;12.15;;;8.30;99.90;;;;;;4787231;29;20115;-71
2022/01/29 06:23:09;;;;;;;24.95;12.32;;;8.30;99.90;;;;;;4789091;29;20058;-71
2022/01/29 06:25:35;;;;;;;23.67;12.02;;;8.40;99.90;;;;;;4786420;29;20126;-71
2022/01/29 06:28:01;;;;;;;26.83;12.38;;;8.40;99.90;;;;;;4787609;30;20074;-70
2022/01/29 06:30:27;;;;;;;28.92;12.20;;;8.30;99.90;;;;;;4787952;29;20535;-70
2022/01/29 06:32:52;;;;;;;25.48;11.48;;;8.30;99.90;;;;;;4802536;29;20142;-71
2022/01/29 06:35:18;;;;;;;24.58;11.23;;;8.30;99.90;;;;;;4787608;30;20051;-71
2022/01/29 06:37:44;;;;;;;18.63;10.45;;;8.30;99.90;;;;;;4787058;29;20054;-71
2022/01/29 06:40:11;;;;;;;23.30;11.40;;;8.40;99.90;;;;;;4786676;29;20527;-69
2022/01/29 06:42:37;;;;;;;19.67;10.20;;;8.40;99.90;;;;;;4788298;29;20504;-69
2022/01/29 06:45:04;;;;;;;18.23;10.48;;;8.40;99.90;;;;;;4786729;29;20048;-70
2022/01/29 06:47:29;;;;;;;22.15;10.23;;;8.40;99.90;;;;;;4787416;29;20055;-70
2022/01/29 06:49:55;;;;;;;23.38;10.45;;;8.40;99.90;;;;;;4788543;29;20206;-69
2022/01/29 06:52:21;;;;;;;17.65;9.95;;;8.50;99.90;;;;;;4788541;29;20381;-70
2022/01/29 06:54:47;;;;;;;20.30;9.25;;;8.40;99.90;;;;;;4788564;29;20382;-70
2022/01/29 06:57:12;;;;;;;19.95;9.55;;;8.50;99.90;;;;;;4801073;29;20186;-70
2022/01/29 06:59:38;;;;;;;19.27;8.82;;;8.50;99.90;;;;;;4785070;29;20050;-70
2022/01/29 07:02:04;;;;;;;16.42;8.80;;;8.50;99.90;;;;;;4786729;29;20074;-71
2022/01/29 07:04:30;;;;;;;16.70;9.52;;;8.70;99.90;;;;;;4786703;29;20405;-71
2022/01/29 07:06:55;;;;;;;13.93;8.70;;;8.60;99.90;;;;;;4785959;29;20054;-71
2022/01/29 07:09:21;;;;;;;20.45;9.55;;;8.60;99.90;;;;;;4784162;29;20047;-71
2022/01/29 07:11:53;;;;;;;19.33;8.20;;;8.60;99.90;;;;;;4783196;29;20051;-71
2022/01/29 07:14:19;;;;;;;17.80;9.77;;;8.60;99.90;;;;;;4784138;29;20062;-71
2022/01/29 07:16:45;;;;;;;21.90;9.40;;;8.60;99.90;;;;;;4787620;29;20069;-71
2022/01/29 07:19:11;;;;;;;19.95;10.65;;;8.60;99.90;;;;;;4786084;29;20501;-71
2022/01/29 07:21:37;;;;;;;17.55;9.15;;;8.60;99.90;;;;;;4787325;29;20114;-71
2022/01/29 07:24:04;;;;;;;19.13;9.05;;;8.70;99.90;;;;;;4786605;29;20052;-71
2022/01/29 07:26:30;;;;;;;21.73;9.45;;;8.60;99.90;;;;;;4787860;29;20043;-71
2022/01/29 07:28:56;;;;;;;20.00;9.52;;;8.60;99.90;;;;;;4787517;29;20126;-71
2022/01/29 07:31:22;;;;;;;18.40;8.77;;;8.60;99.90;;;;;;4787789;29;20067;-70
2022/01/29 07:33:48;;;;;;;18.55;9.48;;;8.60;99.90;;;;;;4784980;29;20129;-71
2022/01/29 07:36:13;;;;;;;17.23;9.35;;;8.70;99.90;;;;;;4786020;29;20039;-71
2022/01/29 07:38:39;;;;;;;17.67;9.50;;;8.60;99.90;;;;;;4786523;29;20039;-71
2022/01/29 07:41:05;;;;;;;21.45;9.73;;;8.70;99.90;;;;;;4786682;29;20062;-72
2022/01/29 07:43:31;;;;;;;16.83;9.13;;;8.80;99.90;;;;;;4787303;29;20047;-71
2022/01/29 07:45:56;;;;;;;17.10;9.30;;;8.60;99.90;;;;;;4786957;29;20377;-70
2022/01/29 07:48:23;;;;;;;25.25;9.85;;;8.60;99.90;;;;;;4785147;29;20067;-71
2022/01/29 07:50:50;;;;;;;18.67;9.18;;;8.60;99.90;;;;;;4788658;29;20561;-71
2022/01/29 07:53:15;;;;;;;17.27;8.63;;;8.70;99.90;;;;;;4786156;29;20055;-71
2022/01/29 07:55:41;;;;;;;17.45;8.90;;;8.60;99.90;;;;;;4785970;29;20452;-71
2022/01/29 07:58:07;;;;;;;15.43;8.63;;;8.70;99.90;;;;;;4786820;29;20497;-71
2022/01/29 08:00:33;;;;;;;18.38;8.30;;;8.70;99.90;;;;;;4786473;29;20054;-71
2022/01/29 08:02:59;;;;;;;18.13;8.65;;;8.70;99.90;;;;;;4784839;29;20044;-72
2022/01/29 08:05:25;;;;;;;14.50;8.02;;;8.70;99.90;;;;;;4786546;29;20059;-71
2022/01/29 08:07:51;;;;;;;20.27;8.45;;;8.70;99.90;;;;;;4785854;29;20046;-71
2022/01/29 08:10:16;;;;;;;15.25;7.75;;;8.70;99.90;;;;;;4786357;29;20097;-71
2022/01/29 08:12:42;;;;;;;23.08;8.38;;;8.80;99.90;;;;;;4785148;29;20039;-71
2022/01/29 08:15:08;;;;;;;16.58;7.70;;;8.80;99.90;;;;;;4784783;29;20054;-71
2022/01/29 08:17:34;;;;;;;17.77;7.95;;;8.80;99.90;;;;;;4786194;29;20208;-71
2022/01/29 08:20:00;;;;;;;15.43;7.47;;;8.80;99.90;;;;;;4785463;29;20552;-71
2022/01/29 08:22:26;;;;;;;14.77;7.03;;;9.00;99.90;;;;;;4786059;29;20126;-71
2022/01/29 08:24:52;;;;;;;13.15;6.45;;;8.90;99.90;;;;;;4786320;29;20043;-71
2022/01/29 08:27:19;;;;;;;16.13;6.88;;;8.90;99.90;;;;;;4787217;29;20382;-71
2022/01/29 08:29:44;;;;;;;15.20;6.57;;;8.90;99.90;;;;;;4785622;29;20047;-71
2022/01/29 08:32:11;;;;;;;12.13;6.50;;;8.90;99.90;;;;;;4785226;29;20066;-71
2022/01/29 08:34:38;;;;;;;11.57;6.13;;;8.90;99.90;;;;;;4786500;29;20051;-71
2022/01/29 08:37:05;;;;;;;13.25;6.75;;;8.90;99.90;;;;;;4785369;29;20082;-71
2022/01/29 08:39:31;;;;;;;18.85;6.22;;;8.90;99.90;;;;;;4785306;29;20134;-72
2022/01/29 08:41:57;;;;;;;12.68;5.97;;;9.00;99.90;;;;;;4785223;29;20079;-71
2022/01/29 08:44:23;;;;;;;14.05;6.28;;;9.00;99.90;;;;;;4784689;29;20086;-71
2022/01/29 08:46:49;;;;;;;12.13;6.05;;;9.00;99.90;;;;;;4786446;29;20071;-71
2022/01/29 08:49:14;;;;;;;12.45;5.72;;;9.00;99.90;;;;;;4785229;29;20051;-73
2022/01/29 08:51:40;;;;;;;13.27;6.40;;;9.10;99.90;;;;;;4785494;29;20114;-72
2022/01/29 08:54:06;;;;;;;13.40;6.20;;;9.10;99.90;;;;;;4785236;29;20082;-72
2022/01/29 08:56:32;;;;;;;12.10;6.55;;;9.10;99.90;;;;;;4786691;30;20113;-72
2022/01/29 08:58:57;;;;;;;16.33;6.72;;;9.10;99.90;;;;;;4784876;29;20051;-72
2022/01/29 09:01:23;;;;;;;12.63;6.47;;;9.10;99.90;;;;;;4781707;29;20073;-73
2022/01/29 09:03:49;;;;;;;9.63;5.25;;;9.10;99.90;;;;;;4789098;29;20079;-70
2022/01/29 09:06:15;;;;;;;11.73;6.70;;;9.10;99.90;;;;;;4786827;29;20071;-71
2022/01/29 09:08:45;;;;;;;12.63;5.72;;;9.10;99.90;;;;;;4784725;29;20538;-70
2022/01/29 09:11:11;;;;;;;17.13;6.28;;;9.30;99.90;;;;;;4786183;29;20545;-70
2022/01/29 09:13:36;;;;;;;12.77;6.55;;;9.10;99.90;;;;;;4787328;29;20118;-70
2022/01/29 09:16:02;;;;;;;14.43;7.55;;;9.20;99.90;;;;;;4789970;29;20058;-70
2022/01/29 09:18:28;;;;;;;13.63;6.65;;;9.20;99.90;;;;;;4790341;29;20402;-72
2022/01/29 09:20:54;;;;;;;12.73;6.72;;;9.20;99.90;;;;;;4787695;29;20135;-72
2022/01/29 09:23:19;;;;;;;11.82;5.85;;;9.20;99.90;;;;;;4788870;29;20130;-72
2022/01/29 09:25:45;;;;;;;15.43;5.75;;;9.20;99.90;;;;;;4790288;29;20130;-69
2022/01/29 09:28:12;;;;;;;14.18;6.35;;;9.20;99.90;;;;;;4790225;29;20043;-70
2022/01/29 09:30:38;;;;;;;18.38;6.25;;;9.20;99.90;;;;;;4790058;29;20063;-70
2022/01/29 09:33:04;;;;;;;14.02;5.28;;;9.30;99.90;;;;;;4788945;29;20080;-69
2022/01/29 09:35:30;;;;;;;13.13;5.07;;;9.30;99.90;;;;;;4773269;30;20401;-69
2022/01/29 09:37:56;;;;;;;11.13;5.28;;;9.30;99.90;;;;;;4787792;29;20100;-70
2022/01/29 09:40:22;;;;;;;9.57;4.57;;;9.30;99.90;;;;;;4789732;29;20035;-70
2022/01/29 09:42:50;;;;;;;14.10;5.05;;;9.30;99.90;;;;;;4788639;29;20077;-70
2022/01/29 09:45:22;;;;;;;12.20;4.60;;;9.40;99.90;;;;;;4787180;29;20525;-67
2022/01/29 09:47:48;;;;;;;9.43;4.07;;;9.40;99.90;;;;;;4787819;29;20051;-67
2022/01/29 09:50:16;;;;;;;10.75;4.15;;;9.50;99.90;;;;;;4789708;29;20520;-67
2022/01/29 09:52:42;;;;;;;12.38;4.93;;;9.50;99.90;;;;;;4789617;29;20039;-65
2022/01/29 09:55:09;;;;;;;11.45;4.30;;;9.60;99.90;;;;;;4788442;29;20054;-65
2022/01/29 09:57:35;;;;;;;10.00;4.32;;;9.60;99.90;;;;;;4789891;29;20087;-65
2022/01/29 10:00:04;;;;;;;9.30;4.00;;;9.60;99.90;;;;;;4789125;29;20051;-65
2022/01/29 10:02:30;;;;;;;12.65;4.32;;;9.70;99.90;;;;;;4787966;29;20050;-65
2022/01/29 10:04:57;;;;;;;9.35;3.25;;;9.70;99.90;;;;;;4788221;29;20051;-65
2022/01/29 10:07:28;;;;;;;12.23;3.75;;;9.70;99.90;;;;;;4789478;29;20047;-65
2022/01/29 10:09:56;;;;;;;5.85;3.08;;;9.70;99.90;;;;;;4788431;29;20531;-65
2022/01/29 10:12:32;;;;;;;9.63;3.22;;;9.70;99.90;;;;;;4789442;29;20181;-65
2022/01/29 10:14:59;;;;;;;;;;;9.80;99.90;;;;;;4789579;29;20523;-65
2022/01/29 10:17:44;;;;;;;8.25;3.00;;;9.80;99.90;;;;;;4789314;29;20290;-65
2022/01/29 10:20:21;;;;;;;8.82;2.85;;;9.80;99.90;;;;;;4788061;29;20394;-66
2022/01/29 10:22:54;;;;;;;10.13;2.65;;;9.80;99.90;;;;;;4780457;29;20131;-65
2022/01/29 10:25:28;;;;;;;7.78;2.50;;;9.80;99.90;;;;;;4787873;29;20116;-65
2022/01/29 10:28:14;;;;;;;9.80;3.13;;;9.80;99.90;;;;;;4787995;29;20074;-66
2022/01/29 10:30:49;;;;;;;9.70;2.78;;;9.90;99.90;;;;;;4788971;29;20109;-66
2022/01/29 10:33:32;;;;;;;6.53;2.53;;;9.80;99.90;;;;;;4788053;29;20091;-65
2022/01/29 10:36:03;;;;;;;9.80;2.90;;;9.90;99.90;;;;;;4785025;29;20416;-65
2022/01/29 10:38:41;;;;;;;9.93;4.00;;;9.90;99.90;;;;;;4787645;29;20050;-66
2022/01/29 10:41:23;;;;;;;14.10;3.72;;;9.90;99.90;;;;;;4787989;29;20119;-65
2022/01/29 10:44:15;;;;;;;8.07;4.07;;;9.90;99.90;;;;;;4787647;29;20126;-65
2022/01/29 10:46:54;;;;;;;16.17;4.85;;;9.90;99.90;;;;;;4798000;29;20053;-65
2022/01/29 10:49:29;;;;;;;17.83;6.82;;;10.00;99.90;;;;;;4790897;29;20124;-65
2022/01/29 10:52:01;;;;;;;18.27;7.45;;;10.00;99.90;;;;;;4793716;29;20058;-65
2022/01/29 10:54:27;;;;;;;16.15;7.65;;;10.10;99.90;;;;;;4787438;29;20083;-65
2022/01/29 10:57:03;;;;;;;15.30;6.10;;;10.20;99.90;;;;;;4787368;29;20183;-65
2022/01/29 10:59:32;;;;;;;12.20;4.40;;;10.20;99.90;;;;;;4786600;29;20047;-65
2022/01/29 11:02:04;;;;;;;9.65;4.07;;;10.30;99.90;;;;;;4782391;29;20054;-65
2022/01/29 11:04:31;;;;;;;11.85;3.78;;;;;;;;;;4784930;29;20046;-67
2022/01/29 11:07:01;;;;;;;11.80;3.38;;;;;;;;;;4787231;29;20051;-66
2022/01/29 11:09:28;;;;;;;10.73;2.78;;;;;;;;;;4785562;29;20047;-68
2022/01/29 11:11:56;;;;;;;8.43;2.60;;;;;;;;;;4784360;29;20043;-67
2022/01/29 11:14:24;;;;;;;10.95;2.78;;;;;;;;;;4783998;29;20055;-67
2022/01/29 11:16:51;;;;;;;6.70;2.20;;;;;;;;;;4787861;29;20043;-67
2022/01/29 11:19:17;;;;;;;10.15;2.58;;;;;;;;;;4788220;29;20054;-67
2022/01/29 11:21:45;;;;;;;14.13;3.38;;;;;;;;;;4786440;29;20209;-67
2022/01/29 11:24:12;;;;;;;12.70;3.53;;;;;;;;;;4785873;29;20202;-67
2022/01/29 11:26:40;;;;;;;15.38;5.13;;;;;;;;;;4785415;29;20477;-67
2022/01/29 11:29:24;;;;;;;15.20;6.90;;;;;;;;;;4784778;29;20058;-67
2022/01/29 11:32:09;;;;;;;23.08;7.30;;;;;;;;;;4786208;29;20063;-67
2022/01/29 11:34:55;;;;;;;19.63;7.90;;;;;;;;;;4784861;29;20059;-67
2022/01/29 11:37:36;;;;;;;17.20;5.57;;;;;;;;;;4786298;29;20047;-67
2022/01/29 11:40:11;;;;;;;17.58;5.63;;;;;;;;;;4786260;29;20051;-67
2022/01/29 11:42:37;;;;;;;11.00;4.23;;;;;;;;;;4785909;29;20150;-67
2022/01/29 11:45:22;;;;;;;12.57;4.13;;;;;;;;;;4786043;29;20312;-68
2022/01/29 11:47:48;;;;;;;12.88;3.35;;;;;;;;;;4786497;29;20460;-67
2022/01/29 11:50:20;;;;;;;7.85;2.83;;;;;;;;;;4785386;29;20047;-67
2022/01/29 11:52:56;;;;;;;8.93;3.05;;;;;;;;;;4786529;29;20043;-67
2022/01/29 11:55:22;;;;;;;;;;;;;;;;;;4788347;29;20043;-67
2022/01/29 11:58:11;;;;;;;10.88;2.38;;;;;;;;;;4787417;29;20340;-67
2022/01/29 12:00:38;;;;;;;8.55;1.95;;;;;;;;;;4782516;29;20120;-68
2022/01/29 12:03:04;;;;;;;9.13;1.60;;;;;;;;;;4785994;29;20054;-67
2022/01/29 12:05:31;;;;;;;9.27;1.95;;;;;;;;;;4782535;29;20108;-67
2022/01/29 12:08:17;;;;;;;7.18;2.45;;;;;;;;;;4783977;29;20385;-67
2022/01/29 12:10:53;;;;;;;4.20;1.83;;;;;;;;;;4783980;29;20050;-67
2022/01/29 12:13:19;;;;;;;8.85;2.17;;;;;;;;;;4785898;29;20114;-66
2022/01/29 12:15:45;;;;;;;7.10;2.17;;;;;;;;;;4784661;29;20058;-66
2022/01/29 12:18:25;;;;;;;6.65;1.80;;;;;;;;;;4785694;29;20386;-66
2022/01/29 12:20:51;;;;;;;8.65;2.20;;;;;;;;;;4786210;29;20388;-66
2022/01/29 12:23:17;;;;;;;6.05;1.90;;;;;;;;;;4770975;30;20047;-66
2022/01/29 12:25:51;;;;;;;6.82;2.70;;;;;;;;;;4784485;29;20045;-66
2022/01/29 12:28:17;;;;;;;9.13;2.70;;;;;;;;;;4782324;29;20116;-66
2022/01/29 12:30:44;;;;;;;8.43;2.25;;;;;;;;;;4786512;29;20573;-66
2022/01/29 12:33:15;;;;;;;9.60;2.72;;;;;;;;;;4786789;29;20420;-66
2022/01/29 12:35:42;;;;;;;11.20;3.80;;;;;;;;;;4782208;29;20074;-66
2022/01/29 12:38:12;;;;;;;13.20;3.38;;;;;;;;;;4785468;29;20051;-66
2022/01/29 12:40:39;;;;;;;12.77;3.47;;;;;;;;;;4784548;29;20047;-66
2022/01/29 12:43:20;;;;;;;9.80;3.45;;;;;;;;;;4786520;29;20047;-66
2022/01/29 12:45:47;;;;;;;10.52;3.50;;;;;;;;;;4783620;29;20043;-66
2022/01/29 12:48:14;;;;;;;10.70;3.45;;;;;;;;;;4785159;29;20078;-66
2022/01/29 12:50:41;;;;;;;11.43;3.60;;;;;;;;;;4785321;29;20397;-67
2022/01/29 12:53:10;;;;;;;10.52;3.47;;;;;;;;;;4784225;29;20055;-67
2022/01/29 12:55:36;;;;;;;14.40;3.70;;;;;;;;;;4785753;29;20043;-66
2022/01/29 12:58:03;;;;;;;9.57;4.07;;;;;;;;;;4786217;29;20047;-66
2022/01/29 13:00:29;;;;;;;12.35;3.10;;;;;;;;;;4786049;29;20043;-67
2022/01/29 13:03:02;;;;;;;11.90;3.42;;;;;;;;;;4785155;29;20055;-67
2022/01/29 13:05:29;;;;;;;11.55;3.15;;;;;;;;;;4783189;29;20585;-66
2022/01/29 13:07:55;;;;;;;8.20;2.78;;;;;;;;;;4786836;30;20086;-66
2022/01/29 13:10:21;;;;;;;9.52;3.38;;;;;;;;;;4786585;29;20516;-67
2022/01/29 13:12:47;;;;;;;13.02;4.18;;;;;;;;;;4787042;29;20082;-66
2022/01/29 13:15:14;;;;;;;10.07;2.80;;;;;;;;;;4786590;29;20055;-67
2022/01/29 13:17:45;;;;;;;7.28;2.53;;;;;;;;;;4785515;29;20055;-66
2022/01/29 13:20:12;;;;;;;9.05;2.35;;;;;;;;;;4785414;29;20059;-67
2022/01/29 13:22:40;;;;;;;8.85;3.00;;;;;;;;;;4786374;29;20063;-66